sensor_id;sensor_type;location;lat;lon;timestamp;pressure;altitude;pressure_sealevel;temperature;humidity
9855;BME280;4966;48.112;9.282;2023-02-02T00:01:57;95411.25;;;3.09;80.86
9855;BME280;4966;48.112;9.282;2023-02-02T00:04:34;95409.09;;;3.06;80.91
9855;BME280;4966;48.112;9.282;2023-02-02T00:07:01;95410.72;;;3.07;81.40
9855;BME280;4966;48.112;9.282;2023-02-02T00:09:29;95398.06;;;3.18;81.59
9855;BME280;4966;48.112;9.282;2023-02-02T00:11:55;95389.75;;;3.09;81.41
9855;BME280;4966;48.112;9.282;2023-02-02T00:14:21;95391.13;;;2.96;82.21
9855;BME280;4966;48.112;9.282;2023-02-02T00:16:49;95400.50;;;2.99;82.55
9855;BME280;4966;48.112;9.282;2023-02-02T00:19:19;95390.06;;;2.92;83.27
9855;BME280;4966;48.112;9.282;2023-02-02T00:21:46;95408.09;;;2.56;86.09
9855;BME280;4966;48.112;9.282;2023-02-02T00:24:14;95400.84;;;2.57;86.97
9855;BME280;4966;48.112;9.282;2023-02-02T00:26:43;95380.41;;;2.76;86.57
9855;BME280;4966;48.112;9.282;2023-02-02T00:29:14;95396.53;;;2.55;87.84
9855;BME280;4966;48.112;9.282;2023-02-02T00:31:40;95392.22;;;2.80;87.49
9855;BME280;4966;48.112;9.282;2023-02-02T00:34:05;95378.22;;;2.93;87.14
9855;BME280;4966;48.112;9.282;2023-02-02T00:36:31;95373.19;;;2.66;88.22
9855;BME280;4966;48.112;9.282;2023-02-02T00:38:56;95379.59;;;2.70;87.78
9855;BME280;4966;48.112;9.282;2023-02-02T00:41:21;95369.41;;;2.62;88.48
9855;BME280;4966;48.112;9.282;2023-02-02T00:43:47;95374.22;;;2.70;88.25
9855;BME280;4966;48.112;9.282;2023-02-02T00:46:32;95380.97;;;2.78;88.36
9855;BME280;4966;48.112;9.282;2023-02-02T00:48:58;95381.75;;;2.79;87.69
9855;BME280;4966;48.112;9.282;2023-02-02T00:51:23;95396.53;;;2.81;87.71
9855;BME280;4966;48.112;9.282;2023-02-02T00:53:48;95380.72;;;2.59;88.28
9855;BME280;4966;48.112;9.282;2023-02-02T00:56:14;95381.22;;;2.76;87.60
9855;BME280;4966;48.112;9.282;2023-02-02T00:58:39;95390.88;;;2.77;87.16
9855;BME280;4966;48.112;9.282;2023-02-02T01:01:04;95378.50;;;2.82;86.85
9855;BME280;4966;48.112;9.282;2023-02-02T01:03:30;95383.91;;;2.76;86.62
9855;BME280;4966;48.112;9.282;2023-02-02T01:05:55;95390.91;;;2.67;87.22
9855;BME280;4966;48.112;9.282;2023-02-02T01:08:20;95389.53;;;2.75;87.29
9855;BME280;4966;48.112;9.282;2023-02-02T01:10:46;95389.25;;;2.92;86.00
9855;BME280;4966;48.112;9.282;2023-02-02T01:13:11;95399.47;;;2.80;86.13
9855;BME280;4966;48.112;9.282;2023-02-02T01:15:36;95401.84;;;3.02;84.67
9855;BME280;4966;48.112;9.282;2023-02-02T01:18:02;95394.63;;;2.97;84.77
9855;BME280;4966;48.112;9.282;2023-02-02T01:20:27;95397.28;;;3.07;84.51
9855;BME280;4966;48.112;9.282;2023-02-02T01:22:53;95399.19;;;3.07;84.26
9855;BME280;4966;48.112;9.282;2023-02-02T01:25:18;95402.44;;;2.88;84.68
9855;BME280;4966;48.112;9.282;2023-02-02T01:27:44;95399.94;;;3.17;83.77
9855;BME280;4966;48.112;9.282;2023-02-02T01:30:10;95396.47;;;3.02;84.09
9855;BME280;4966;48.112;9.282;2023-02-02T01:32:35;95399.13;;;3.22;82.91
9855;BME280;4966;48.112;9.282;2023-02-02T01:35:00;95397.50;;;3.16;83.36
9855;BME280;4966;48.112;9.282;2023-02-02T01:37:26;95402.63;;;3.17;83.44
9855;BME280;4966;48.112;9.282;2023-02-02T01:39:51;95403.19;;;3.14;83.21
9855;BME280;4966;48.112;9.282;2023-02-02T01:42:21;95399.69;;;3.14;83.43
9855;BME280;4966;48.112;9.282;2023-02-02T01:47:24;95392.44;;;2.99;83.58
9855;BME280;4966;48.112;9.282;2023-02-02T01:49:52;95392.19;;;3.01;83.65
9855;BME280;4966;48.112;9.282;2023-02-02T01:52:20;95393.56;;;2.83;84.44
9855;BME280;4966;48.112;9.282;2023-02-02T01:54:53;95385.16;;;3.15;83.44
9855;BME280;4966;48.112;9.282;2023-02-02T01:58:23;95402.69;;;2.82;84.66
9855;BME280;4966;48.112;9.282;2023-02-02T02:00:42;95398.94;;;2.83;84.25
9855;BME280;4966;48.112;9.282;2023-02-02T02:03:11;95416.41;;;2.70;85.69
9855;BME280;4966;48.112;9.282;2023-02-02T02:05:43;95406.19;;;2.82;84.93
9855;BME280;4966;48.112;9.282;2023-02-02T02:08:28;95396.78;;;2.85;84.64
9855;BME280;4966;48.112;9.282;2023-02-02T02:10:55;95396.22;;;2.98;84.58
9855;BME280;4966;48.112;9.282;2023-02-02T02:13:23;95394.34;;;2.98;83.83
9855;BME280;4966;48.112;9.282;2023-02-02T02:27:12;95370.16;;;2.98;84.15
9855;BME280;4966;48.112;9.282;2023-02-02T02:33:10;95373.84;;;3.18;83.17
9855;BME280;4966;48.112;9.282;2023-02-02T02:35:47;95360.72;;;3.16;83.01
9855;BME280;4966;48.112;9.282;2023-02-02T02:38:35;95366.19;;;2.75;84.53
9855;BME280;4966;48.112;9.282;2023-02-02T02:41:16;95350.50;;;3.03;83.59
9855;BME280;4966;48.112;9.282;2023-02-02T02:43:53;95355.28;;;3.27;82.75
9855;BME280;4966;48.112;9.282;2023-02-02T02:46:20;95357.41;;;3.30;82.51
9855;BME280;4966;48.112;9.282;2023-02-02T02:48:46;95357.41;;;3.30;81.96
9855;BME280;4966;48.112;9.282;2023-02-02T02:51:41;95358.00;;;3.22;82.63
9855;BME280;4966;48.112;9.282;2023-02-02T02:54:12;95353.69;;;3.26;81.92
9855;BME280;4966;48.112;9.282;2023-02-02T03:02:49;95359.84;;;3.31;81.57
9855;BME280;4966;48.112;9.282;2023-02-02T03:05:43;95366.22;;;3.46;80.54
9855;BME280;4966;48.112;9.282;2023-02-02T03:08:19;95366.44;;;3.54;80.03
9855;BME280;4966;48.112;9.282;2023-02-02T03:10:48;95373.19;;;3.52;79.97
9855;BME280;4966;48.112;9.282;2023-02-02T03:13:14;95378.13;;;3.89;78.66
9855;BME280;4966;48.112;9.282;2023-02-02T03:15:42;95374.66;;;3.83;78.33
9855;BME280;4966;48.112;9.282;2023-02-02T03:18:08;95379.78;;;3.80;78.68
9855;BME280;4966;48.112;9.282;2023-02-02T03:20:33;95378.09;;;3.94;78.18
9855;BME280;4966;48.112;9.282;2023-02-02T03:22:59;95374.66;;;3.83;78.51
9855;BME280;4966;48.112;9.282;2023-02-02T03:25:24;95382.19;;;3.81;78.39
9855;BME280;4966;48.112;9.282;2023-02-02T03:27:50;95383.72;;;3.98;77.50
9855;BME280;4966;48.112;9.282;2023-02-02T03:30:17;95377.72;;;3.61;79.29
9855;BME280;4966;48.112;9.282;2023-02-02T03:32:43;95377.19;;;3.65;78.99
9855;BME280;4966;48.112;9.282;2023-02-02T03:35:09;95374.25;;;3.56;78.88
9855;BME280;4966;48.112;9.282;2023-02-02T03:37:34;95379.03;;;3.69;78.62
9855;BME280;4966;48.112;9.282;2023-02-02T03:40:00;95378.47;;;3.72;78.52
9855;BME280;4966;48.112;9.282;2023-02-02T03:42:25;95389.94;;;3.93;77.33
9855;BME280;4966;48.112;9.282;2023-02-02T03:44:50;95380.50;;;3.96;77.38
9855;BME280;4966;48.112;9.282;2023-02-02T03:47:16;95385.75;;;4.16;76.53
9855;BME280;4966;48.112;9.282;2023-02-02T03:49:41;95373.06;;;3.77;77.79
9855;BME280;4966;48.112;9.282;2023-02-02T03:52:06;95379.78;;;3.80;78.18
9855;BME280;4966;48.112;9.282;2023-02-02T03:54:32;95384.97;;;3.71;78.17
9855;BME280;4966;48.112;9.282;2023-02-02T03:56:58;95383.84;;;3.72;77.63
9855;BME280;4966;48.112;9.282;2023-02-02T03:59:23;95385.78;;;3.67;78.15
9855;BME280;4966;48.112;9.282;2023-02-02T04:01:49;95393.47;;;3.89;77.69
9855;BME280;4966;48.112;9.282;2023-02-02T04:04:14;95398.25;;;3.97;77.05
9855;BME280;4966;48.112;9.282;2023-02-02T04:06:40;95415.47;;;4.01;76.72
9855;BME280;4966;48.112;9.282;2023-02-02T04:09:05;95406.28;;;4.02;76.83
9855;BME280;4966;48.112;9.282;2023-02-02T04:11:31;95414.72;;;3.85;77.62
9855;BME280;4966;48.112;9.282;2023-02-02T04:13:56;95411.22;;;3.90;77.26
9855;BME280;4966;48.112;9.282;2023-02-02T04:16:21;95414.31;;;3.62;78.56
9855;BME280;4966;48.112;9.282;2023-02-02T04:18:47;95407.50;;;3.75;77.72
9855;BME280;4966;48.112;9.282;2023-02-02T04:21:12;95408.00;;;3.93;77.45
9855;BME280;4966;48.112;9.282;2023-02-02T04:23:37;95410.69;;;3.93;77.32
9855;BME280;4966;48.112;9.282;2023-02-02T04:26:03;95399.75;;;3.69;77.96
9855;BME280;4966;48.112;9.282;2023-02-02T04:28:29;95397.00;;;3.84;77.59
9855;BME280;4966;48.112;9.282;2023-02-02T04:30:55;95393.06;;;3.61;78.13
9855;BME280;4966;48.112;9.282;2023-02-02T04:33:22;95400.03;;;3.67;77.80
9855;BME280;4966;48.112;9.282;2023-02-02T04:35:47;95396.00;;;3.65;77.65
9855;BME280;4966;48.112;9.282;2023-02-02T04:38:12;95396.22;;;3.73;77.15
9855;BME280;4966;48.112;9.282;2023-02-02T04:40:39;95389.97;;;3.88;76.75
9855;BME280;4966;48.112;9.282;2023-02-02T04:43:05;95398.16;;;3.62;77.19
9855;BME280;4966;48.112;9.282;2023-02-02T04:45:30;95390.38;;;3.56;78.02
9855;BME280;4966;48.112;9.282;2023-02-02T04:47:56;95394.66;;;3.67;77.77
9855;BME280;4966;48.112;9.282;2023-02-02T04:50:21;95400.84;;;3.68;77.04
9855;BME280;4966;48.112;9.282;2023-02-02T04:52:46;95391.69;;;3.63;77.08
9855;BME280;4966;48.112;9.282;2023-02-02T04:55:12;95393.91;;;3.51;77.57
9855;BME280;4966;48.112;9.282;2023-02-02T04:57:38;95399.22;;;3.72;76.96
9855;BME280;4966;48.112;9.282;2023-02-02T05:00:03;95398.06;;;3.88;76.19
9855;BME280;4966;48.112;9.282;2023-02-02T05:02:29;95396.03;;;3.59;77.02
9855;BME280;4966;48.112;9.282;2023-02-02T05:04:54;95396.28;;;3.63;77.25
9855;BME280;4966;48.112;9.282;2023-02-02T05:07:20;95387.25;;;3.93;76.27
9855;BME280;4966;48.112;9.282;2023-02-02T05:09:45;95393.88;;;3.56;77.12
9855;BME280;4966;48.112;9.282;2023-02-02T05:12:10;95398.09;;;3.78;76.17
9855;BME280;4966;48.112;9.282;2023-02-02T05:14:36;95402.56;;;3.98;75.47
9855;BME280;4966;48.112;9.282;2023-02-02T05:17:01;95404.47;;;3.92;75.59
9855;BME280;4966;48.112;9.282;2023-02-02T05:19:26;95404.94;;;4.10;75.05
9855;BME280;4966;48.112;9.282;2023-02-02T05:21:52;95412.88;;;3.80;76.07
9855;BME280;4966;48.112;9.282;2023-02-02T05:24:19;95406.88;;;3.94;75.79
9855;BME280;4966;48.112;9.282;2023-02-02T05:26:44;95408.00;;;3.93;74.92
9855;BME280;4966;48.112;9.282;2023-02-02T05:29:09;95420.13;;;3.85;75.72
9855;BME280;4966;48.112;9.282;2023-02-02T05:31:35;95411.34;;;4.14;74.64
9855;BME280;4966;48.112;9.282;2023-02-02T05:34:00;95422.78;;;3.95;74.86
9855;BME280;4966;48.112;9.282;2023-02-02T05:36:26;95418.91;;;4.07;75.06
9855;BME280;4966;48.112;9.282;2023-02-02T05:38:51;95412.66;;;4.16;74.74
9855;BME280;4966;48.112;9.282;2023-02-02T05:41:17;95421.69;;;4.41;73.86
9855;BME280;4966;48.112;9.282;2023-02-02T05:43:42;95414.66;;;4.00;74.87
9855;BME280;4966;48.112;9.282;2023-02-02T05:46:07;95430.59;;;3.92;75.24
9855;BME280;4966;48.112;9.282;2023-02-02T05:48:33;95418.28;;;4.25;74.99
9855;BME280;4966;48.112;9.282;2023-02-02T05:51:14;95421.84;;;4.15;74.75
9855;BME280;4966;48.112;9.282;2023-02-02T05:53:41;95419.97;;;4.50;73.68
9855;BME280;4966;48.112;9.282;2023-02-02T05:56:09;95426.88;;;4.27;74.46
9855;BME280;4966;48.112;9.282;2023-02-02T05:58:34;95423.44;;;4.21;74.41
9855;BME280;4966;48.112;9.282;2023-02-02T06:01:00;95433.97;;;4.13;74.58
9855;BME280;4966;48.112;9.282;2023-02-02T06:03:26;95434.41;;;4.30;74.24
9855;BME280;4966;48.112;9.282;2023-02-02T06:05:51;95429.88;;;4.20;74.84
9855;BME280;4966;48.112;9.282;2023-02-02T06:08:17;95428.03;;;4.16;75.25
9855;BME280;4966;48.112;9.282;2023-02-02T06:10:42;95429.75;;;3.96;75.60
9855;BME280;4966;48.112;9.282;2023-02-02T06:13:08;95428.00;;;4.21;75.67
9855;BME280;4966;48.112;9.282;2023-02-02T06:15:34;95426.53;;;4.39;74.78
9855;BME280;4966;48.112;9.282;2023-02-02T06:18:00;95431.66;;;4.35;74.31
9855;BME280;4966;48.112;9.282;2023-02-02T06:20:26;95427.03;;;4.01;75.88
9855;BME280;4966;48.112;9.282;2023-02-02T06:22:52;95439.59;;;4.21;75.37
9855;BME280;4966;48.112;9.282;2023-02-02T06:25:17;95433.78;;;4.43;74.17
9855;BME280;4966;48.112;9.282;2023-02-02T06:27:43;95436.34;;;4.59;74.31
9855;BME280;4966;48.112;9.282;2023-02-02T06:30:12;95437.19;;;4.54;73.61
9855;BME280;4966;48.112;9.282;2023-02-02T06:32:37;95437.50;;;4.53;74.11
9855;BME280;4966;48.112;9.282;2023-02-02T06:35:04;95432.16;;;4.42;73.82
9855;BME280;4966;48.112;9.282;2023-02-02T06:37:29;95433.38;;;4.21;75.19
9855;BME280;4966;48.112;9.282;2023-02-02T06:39:55;95427.50;;;4.14;75.77
9855;BME280;4966;48.112;9.282;2023-02-02T06:42:20;95433.34;;;4.26;75.41
9855;BME280;4966;48.112;9.282;2023-02-02T06:44:45;95428.84;;;4.11;75.58
9855;BME280;4966;48.112;9.282;2023-02-02T06:47:11;95434.16;;;4.26;75.13
9855;BME280;4966;48.112;9.282;2023-02-02T06:49:36;95442.22;;;4.32;75.27
9855;BME280;4966;48.112;9.282;2023-02-02T06:52:02;95446.91;;;4.11;75.35
9855;BME280;4966;48.112;9.282;2023-02-02T06:54:27;95450.53;;;4.35;74.82
9855;BME280;4966;48.112;9.282;2023-02-02T06:56:52;95451.34;;;4.36;75.24
9855;BME280;4966;48.112;9.282;2023-02-02T06:59:18;95450.59;;;4.25;75.39
9855;BME280;4966;48.112;9.282;2023-02-02T07:01:44;95465.00;;;4.44;74.90
9855;BME280;4966;48.112;9.282;2023-02-02T07:04:12;95455.97;;;4.25;75.35
9855;BME280;4966;48.112;9.282;2023-02-02T07:06:37;95455.06;;;4.40;75.14
9855;BME280;4966;48.112;9.282;2023-02-02T07:09:03;95463.84;;;4.61;74.58
9855;BME280;4966;48.112;9.282;2023-02-02T07:11:30;95466.50;;;4.26;75.12
9855;BME280;4966;48.112;9.282;2023-02-02T07:13:56;95462.50;;;4.14;75.87
9855;BME280;4966;48.112;9.282;2023-02-02T07:16:21;95473.31;;;4.53;74.78
9855;BME280;4966;48.112;9.282;2023-02-02T07:18:49;95464.25;;;4.39;75.05
9855;BME280;4966;48.112;9.282;2023-02-02T07:21:17;95467.78;;;4.34;75.66
9855;BME280;4966;48.112;9.282;2023-02-02T07:23:43;95466.31;;;4.52;74.41
9855;BME280;4966;48.112;9.282;2023-02-02T07:26:11;95468.91;;;4.67;74.30
9855;BME280;4966;48.112;9.282;2023-02-02T07:28:36;95474.72;;;4.40;75.90
9855;BME280;4966;48.112;9.282;2023-02-02T07:31:16;95462.22;;;4.60;74.59
9855;BME280;4966;48.112;9.282;2023-02-02T07:33:43;95462.28;;;4.50;75.23
9855;BME280;4966;48.112;9.282;2023-02-02T07:36:10;95454.50;;;4.82;73.97
9855;BME280;4966;48.112;9.282;2023-02-02T07:38:36;95464.84;;;4.70;74.24
9855;BME280;4966;48.112;9.282;2023-02-02T07:41:02;95469.34;;;4.40;75.73
9855;BME280;4966;48.112;9.282;2023-02-02T07:43:28;95466.97;;;4.34;75.94
9855;BME280;4966;48.112;9.282;2023-02-02T07:45:53;95471.03;;;4.71;75.15
9855;BME280;4966;48.112;9.282;2023-02-02T07:48:18;95475.00;;;4.78;74.79
9855;BME280;4966;48.112;9.282;2023-02-02T07:50:44;95467.38;;;4.90;74.61
9855;BME280;4966;48.112;9.282;2023-02-02T07:53:09;95470.63;;;4.53;76.35
9855;BME280;4966;48.112;9.282;2023-02-02T07:55:34;95470.66;;;4.48;77.05
9855;BME280;4966;48.112;9.282;2023-02-02T07:58:00;95473.00;;;4.60;77.33
9855;BME280;4966;48.112;9.282;2023-02-02T08:00:26;95477.22;;;4.71;76.35
9855;BME280;4966;48.112;9.282;2023-02-02T08:02:52;95486.38;;;4.36;78.44
9855;BME280;4966;48.112;9.282;2023-02-02T08:05:17;95479.34;;;4.79;76.07
9855;BME280;4966;48.112;9.282;2023-02-02T08:07:43;95483.06;;;4.44;77.93
9855;BME280;4966;48.112;9.282;2023-02-02T08:10:09;95478.25;;;4.41;78.43
9855;BME280;4966;48.112;9.282;2023-02-02T08:12:35;95485.56;;;4.75;77.29
9855;BME280;4966;48.112;9.282;2023-02-02T08:15:00;95483.84;;;4.89;76.89
9855;BME280;4966;48.112;9.282;2023-02-02T08:17:25;95491.09;;;5.23;75.98
9855;BME280;4966;48.112;9.282;2023-02-02T08:19:51;95496.66;;;5.02;76.42
9855;BME280;4966;48.112;9.282;2023-02-02T08:22:16;95500.22;;;4.58;77.88
9855;BME280;4966;48.112;9.282;2023-02-02T08:24:41;95500.75;;;4.60;77.85
9855;BME280;4966;48.112;9.282;2023-02-02T08:27:08;95502.28;;;4.77;77.84
9855;BME280;4966;48.112;9.282;2023-02-02T08:29:35;95495.38;;;4.95;76.78
9855;BME280;4966;48.112;9.282;2023-02-02T08:32:01;95508.34;;;4.93;76.58
9855;BME280;4966;48.112;9.282;2023-02-02T08:34:27;95502.16;;;4.53;77.84
9855;BME280;4966;48.112;9.282;2023-02-02T08:36:52;95490.66;;;4.81;77.74
9855;BME280;4966;48.112;9.282;2023-02-02T08:39:18;95505.38;;;4.94;77.58
9855;BME280;4966;48.112;9.282;2023-02-02T08:41:43;95507.75;;;5.01;76.67
9855;BME280;4966;48.112;9.282;2023-02-02T08:44:12;95505.16;;;5.20;76.19
9855;BME280;4966;48.112;9.282;2023-02-02T08:46:39;95505.94;;;4.91;76.16
9855;BME280;4966;48.112;9.282;2023-02-02T08:49:05;95512.16;;;4.86;76.43
9855;BME280;4966;48.112;9.282;2023-02-02T08:51:30;95524.72;;;5.01;76.49
9855;BME280;4966;48.112;9.282;2023-02-02T08:53:55;95524.59;;;5.17;75.42
9855;BME280;4966;48.112;9.282;2023-02-02T08:56:21;95526.13;;;5.57;74.13
9855;BME280;4966;48.112;9.282;2023-02-02T08:58:49;95523.56;;;5.13;74.50
9855;BME280;4966;48.112;9.282;2023-02-02T09:01:18;95525.31;;;5.27;74.33
9855;BME280;4966;48.112;9.282;2023-02-02T09:03:44;95514.69;;;5.07;74.98
9855;BME280;4966;48.112;9.282;2023-02-02T09:06:12;95517.06;;;5.43;74.18
9855;BME280;4966;48.112;9.282;2023-02-02T09:08:38;95512.19;;;5.45;74.65
9855;BME280;4966;48.112;9.282;2023-02-02T09:11:08;95524.84;;;5.49;74.71
9855;BME280;4966;48.112;9.282;2023-02-02T09:13:35;95522.91;;;4.92;76.66
9855;BME280;4966;48.112;9.282;2023-02-02T09:16:02;95531.22;;;4.95;76.70
9855;BME280;4966;48.112;9.282;2023-02-02T09:18:28;95537.81;;;4.79;77.01
9855;BME280;4966;48.112;9.282;2023-02-02T09:20:53;95548.78;;;4.93;78.00
9855;BME280;4966;48.112;9.282;2023-02-02T09:23:19;95552.34;;;4.83;79.50
9855;BME280;4966;48.112;9.282;2023-02-02T09:25:45;95564.31;;;4.66;78.81
9855;BME280;4966;48.112;9.282;2023-02-02T09:28:10;95563.66;;;4.85;78.89
9855;BME280;4966;48.112;9.282;2023-02-02T09:30:35;95571.00;;;4.79;79.05
9855;BME280;4966;48.112;9.282;2023-02-02T09:33:01;95568.75;;;4.42;80.62
9855;BME280;4966;48.112;9.282;2023-02-02T09:35:26;95566.13;;;4.81;79.29
9855;BME280;4966;48.112;9.282;2023-02-02T09:37:51;95565.13;;;4.67;79.90
9855;BME280;4966;48.112;9.282;2023-02-02T09:40:18;95569.53;;;4.53;79.73
9855;BME280;4966;48.112;9.282;2023-02-02T09:42:48;95577.66;;;4.37;81.27
9855;BME280;4966;48.112;9.282;2023-02-02T09:45:36;95584.47;;;4.24;81.59
9855;BME280;4966;48.112;9.282;2023-02-02T09:53:41;95602.72;;;4.33;82.11
9855;BME280;4966;48.112;9.282;2023-02-02T09:56:26;95605.34;;;4.53;80.91
9855;BME280;4966;48.112;9.282;2023-02-02T09:58:55;95601.16;;;4.26;82.51
9855;BME280;4966;48.112;9.282;2023-02-02T10:01:33;95609.63;;;4.54;81.81
9855;BME280;4966;48.112;9.282;2023-02-02T10:04:02;95605.53;;;4.72;81.23
9855;BME280;4966;48.112;9.282;2023-02-02T10:06:34;95610.38;;;4.70;80.60
9855;BME280;4966;48.112;9.282;2023-02-02T10:14:23;95600.66;;;4.69;82.04
9855;BME280;4966;48.112;9.282;2023-02-02T10:16:52;95600.97;;;4.67;82.05
9855;BME280;4966;48.112;9.282;2023-02-02T10:19:18;95598.44;;;4.86;80.97
9855;BME280;4966;48.112;9.282;2023-02-02T10:24:27;95586.81;;;4.86;80.96
9855;BME280;4966;48.112;9.282;2023-02-02T10:27:07;95582.16;;;5.02;80.76
9855;BME280;4966;48.112;9.282;2023-02-02T10:29:52;95587.81;;;5.40;79.33
9855;BME280;4966;48.112;9.282;2023-02-02T10:32:54;95582.50;;;5.29;79.02
9855;BME280;4966;48.112;9.282;2023-02-02T10:35:33;95586.28;;;5.63;79.92
9855;BME280;4966;48.112;9.282;2023-02-02T10:46:13;95577.94;;;5.25;80.38
9855;BME280;4966;48.112;9.282;2023-02-02T10:48:42;95583.34;;;5.25;79.90
9855;BME280;4966;48.112;9.282;2023-02-02T10:51:27;95583.41;;;5.15;81.26
9855;BME280;4966;48.112;9.282;2023-02-02T10:53:56;95601.69;;;5.23;80.92
9855;BME280;4966;48.112;9.282;2023-02-02T10:56:35;95592.91;;;5.07;81.57
9855;BME280;4966;48.112;9.282;2023-02-02T10:59:06;95592.13;;;5.01;81.02
9855;BME280;4966;48.112;9.282;2023-02-02T11:01:36;95594.31;;;5.33;80.41
9855;BME280;4966;48.112;9.282;2023-02-02T11:04:01;95589.59;;;5.20;80.64
9855;BME280;4966;48.112;9.282;2023-02-02T11:06:45;95589.44;;;5.01;81.00
9855;BME280;4966;48.112;9.282;2023-02-02T11:09:15;95589.16;;;5.03;80.54
9855;BME280;4966;48.112;9.282;2023-02-02T11:11:42;95587.31;;;4.98;81.53
9855;BME280;4966;48.112;9.282;2023-02-02T11:14:15;95591.28;;;4.61;82.71
9855;BME280;4966;48.112;9.282;2023-02-02T11:16:43;95583.97;;;4.72;82.16
9855;BME280;4966;48.112;9.282;2023-02-02T11:21:48;95577.22;;;4.75;82.91
9855;BME280;4966;48.112;9.282;2023-02-02T11:24:25;95588.13;;;4.99;81.91
9855;BME280;4966;48.112;9.282;2023-02-02T11:27:03;95591.34;;;5.01;81.73
9855;BME280;4966;48.112;9.282;2023-02-02T11:29:33;95592.84;;;5.12;80.92
9855;BME280;4966;48.112;9.282;2023-02-02T11:37:33;95593.81;;;4.92;82.20
9855;BME280;4966;48.112;9.282;2023-02-02T11:40:36;95585.09;;;5.05;81.71
9855;BME280;4966;48.112;9.282;2023-02-02T11:43:25;95587.22;;;5.08;81.82
9855;BME280;4966;48.112;9.282;2023-02-02T11:45:55;95588.53;;;5.16;81.31
9855;BME280;4966;48.112;9.282;2023-02-02T11:48:27;95590.78;;;5.04;82.17
9855;BME280;4966;48.112;9.282;2023-02-02T11:50:54;95588.69;;;4.96;81.69
9855;BME280;4966;48.112;9.282;2023-02-02T11:55:51;95591.50;;;5.15;81.59
9855;BME280;4966;48.112;9.282;2023-02-02T11:58:22;95592.84;;;5.12;81.37
9855;BME280;4966;48.112;9.282;2023-02-02T12:01:00;95591.88;;;5.03;81.62
9855;BME280;4966;48.112;9.282;2023-02-02T12:03:33;95583.44;;;5.09;82.27
9855;BME280;4966;48.112;9.282;2023-02-02T12:05:58;95596.03;;;4.80;83.19
9855;BME280;4966;48.112;9.282;2023-02-02T12:08:26;95594.75;;;4.72;84.48
9855;BME280;4966;48.112;9.282;2023-02-02T12:11:00;95591.47;;;5.20;83.53
9855;BME280;4966;48.112;9.282;2023-02-02T12:16:32;95592.44;;;4.95;84.77
9855;BME280;4966;48.112;9.282;2023-02-02T12:19:40;95599.03;;;4.73;85.20
9855;BME280;4966;48.112;9.282;2023-02-02T12:28:04;95567.34;;;5.33;83.67
9855;BME280;4966;48.112;9.282;2023-02-02T12:33:53;95566.50;;;5.38;82.26
9855;BME280;4966;48.112;9.282;2023-02-02T12:36:39;95566.06;;;5.55;81.50
9855;BME280;4966;48.112;9.282;2023-02-02T12:39:22;95561.91;;;5.39;80.84
9855;BME280;4966;48.112;9.282;2023-02-02T12:53:25;95571.03;;;5.77;78.16
9855;BME280;4966;48.112;9.282;2023-02-02T13:04:10;95572.06;;;5.18;77.38
9855;BME280;4966;48.112;9.282;2023-02-02T13:09:40;95570.19;;;5.76;75.91
9855;BME280;4966;48.112;9.282;2023-02-02T13:12:09;95569.56;;;5.61;76.80
9855;BME280;4966;48.112;9.282;2023-02-02T13:14:43;95574.47;;;5.83;74.15
9855;BME280;4966;48.112;9.282;2023-02-02T13:17:17;95572.38;;;5.74;74.16
9855;BME280;4966;48.112;9.282;2023-02-02T13:19:50;95577.06;;;5.64;73.93
9855;BME280;4966;48.112;9.282;2023-02-02T13:22:33;95572.16;;;5.71;73.09
9855;BME280;4966;48.112;9.282;2023-02-02T13:25:04;95562.16;;;5.71;73.50
9855;BME280;4966;48.112;9.282;2023-02-02T13:27:33;95561.63;;;6.23;72.57
9855;BME280;4966;48.112;9.282;2023-02-02T13:30:10;95563.31;;;6.18;72.13
9855;BME280;4966;48.112;9.282;2023-02-02T13:32:41;95566.66;;;6.53;70.67
9855;BME280;4966;48.112;9.282;2023-02-02T13:35:22;95572.06;;;6.53;69.66
9855;BME280;4966;48.112;9.282;2023-02-02T13:40:35;95574.22;;;6.08;70.82
9855;BME280;4966;48.112;9.282;2023-02-02T13:45:46;95574.94;;;5.90;70.78
9855;BME280;4966;48.112;9.282;2023-02-02T13:51:12;95589.13;;;6.30;70.90
9855;BME280;4966;48.112;9.282;2023-02-02T13:57:16;95585.38;;;6.26;70.24
9855;BME280;4966;48.112;9.282;2023-02-02T13:59:42;95590.66;;;6.36;70.67
9855;BME280;4966;48.112;9.282;2023-02-02T14:02:25;95593.53;;;5.62;71.13
9855;BME280;4966;48.112;9.282;2023-02-02T14:04:56;95600.94;;;5.81;71.39
9855;BME280;4966;48.112;9.282;2023-02-02T14:07:43;95605.66;;;5.65;72.16
9855;BME280;4966;48.112;9.282;2023-02-02T14:10:29;95611.09;;;5.60;72.14
9855;BME280;4966;48.112;9.282;2023-02-02T14:13:25;95614.34;;;5.27;72.91
9855;BME280;4966;48.112;9.282;2023-02-02T14:16:23;95629.47;;;5.58;73.21
9855;BME280;4966;48.112;9.282;2023-02-02T14:19:05;95635.66;;;5.63;72.71
9855;BME280;4966;48.112;9.282;2023-02-02T14:26:40;95638.91;;;5.26;73.11
9855;BME280;4966;48.112;9.282;2023-02-02T14:34:29;95646.81;;;5.51;73.70
9855;BME280;4966;48.112;9.282;2023-02-02T14:45:42;95653.09;;;5.42;73.53
9855;BME280;4966;48.112;9.282;2023-02-02T14:48:18;95642.03;;;5.38;73.19
9855;BME280;4966;48.112;9.282;2023-02-02T14:50:53;95650.97;;;5.33;73.08
9855;BME280;4966;48.112;9.282;2023-02-02T14:53:32;95651.94;;;5.48;71.87
9855;BME280;4966;48.112;9.282;2023-02-02T14:58:31;95667.59;;;5.85;71.23
9855;BME280;4966;48.112;9.282;2023-02-02T15:06:45;95681.38;;;5.49;72.15
9855;BME280;4966;48.112;9.282;2023-02-02T15:17:01;95681.84;;;5.57;71.15
9855;BME280;4966;48.112;9.282;2023-02-02T15:19:32;95686.50;;;5.51;71.94
9855;BME280;4966;48.112;9.282;2023-02-02T15:22:12;95680.34;;;5.74;71.55
9855;BME280;4966;48.112;9.282;2023-02-02T15:24:43;95689.28;;;5.75;71.17
9855;BME280;4966;48.112;9.282;2023-02-02T15:27:15;95693.84;;;5.80;70.78
9855;BME280;4966;48.112;9.282;2023-02-02T15:29:44;95706.41;;;5.55;71.86
9855;BME280;4966;48.112;9.282;2023-02-02T15:32:19;95712.38;;;5.52;71.46
9855;BME280;4966;48.112;9.282;2023-02-02T15:34:49;95696.72;;;5.54;71.51
9855;BME280;4966;48.112;9.282;2023-02-02T15:37:20;95701.13;;;5.40;71.62
9855;BME280;4966;48.112;9.282;2023-02-02T15:39:52;95708.31;;;5.54;71.85
9855;BME280;4966;48.112;9.282;2023-02-02T15:42:34;95704.53;;;5.56;71.51
9855;BME280;4966;48.112;9.282;2023-02-02T15:48:28;95716.38;;;5.60;71.81
9855;BME280;4966;48.112;9.282;2023-02-02T15:50:58;95710.03;;;5.80;71.43
9855;BME280;4966;48.112;9.282;2023-02-02T15:53:48;95713.47;;;5.51;73.78
9855;BME280;4966;48.112;9.282;2023-02-02T15:56:33;95722.16;;;5.43;74.34
9855;BME280;4966;48.112;9.282;2023-02-02T15:58:59;95726.09;;;5.61;74.67
9855;BME280;4966;48.112;9.282;2023-02-02T16:01:29;95717.44;;;5.19;76.63
9855;BME280;4966;48.112;9.282;2023-02-02T16:06:39;95732.53;;;5.20;77.39
9855;BME280;4966;48.112;9.282;2023-02-02T16:09:06;95738.09;;;5.39;77.26